Terminal Aerodrome Forecast
Issued by NWS Greer, SC

Current Version | Previous Version | Text Only | Print | Product List | Glossary On
Versions: 1 2 3 4 5 6 7 8 9 10 11 12 13 14 15 16 17 18 19 20 21 22 23 24 25 26
000
FTUS42 KGSP 200800 AAA
TAFCLT
TAF AMD
KCLT 200857Z 2009/2106 02010KT P6SM BKN070
     FM201600 03013G22KT P6SM SCT070
     FM210200 03008KT P6SM FEW060 SCT250=

USA.gov is the U.S. government's official web portal to all federal, state and local government web resources and services.